Clifftop, West Virginia
Current Conditions -  °F | °C
As of 4:51 PM on Friday 24 Oct 2014 (Local Time) from KBKW Reporting Station
Clear Clear  
Wind Chill: 58°   Ceiling: Unl
Heat Index: 58°   Visibility: 10mi
Dew Point: 38°   Wind: 8mph
Humidity: 47%   Direction: 350°N
Pressure: 30.05"   Gusts: NA
Location:  37.8817°N, 80.9739°W
Report Text: KBKW 242051Z AUTO 35007KT 10SM CLR 14/03 A3005 RMK AO2 SLP174 T01440033 56008 TSNO
Loading
Personal Weather Stations






























Interactive Weather Map
Tropical Storm Tracking
New forecast layout! Learn more

10-Day Weather Forecast

Advertisements
Track Severe Weather on mobile